createdAt,value
2022-08-21T00:00:15.314Z,19.09
2022-08-21T00:03:17.950Z,18.92
2022-08-21T00:06:21.070Z,18.91
2022-08-21T00:09:25.000Z,18.83
2022-08-21T00:12:28.191Z,18.73
2022-08-21T00:15:33.270Z,18.74
2022-08-21T00:18:35.872Z,18.66
2022-08-21T00:21:38.552Z,18.61
2022-08-21T00:24:42.470Z,18.55
2022-08-21T00:27:45.478Z,18.43
2022-08-21T00:30:48.327Z,18.34
2022-08-21T00:33:50.940Z,18.39
2022-08-21T00:36:53.431Z,18.34
2022-08-21T00:39:57.532Z,18.36
2022-08-21T00:43:00.391Z,18.34
2022-08-21T00:46:05.220Z,18.32
2022-08-21T00:49:08.555Z,18.32
2022-08-21T00:52:14.885Z,18.20
2022-08-21T00:55:19.535Z,18.25
2022-08-21T00:58:22.620Z,18.24
2022-08-21T01:01:25.331Z,18.13
2022-08-21T01:04:28.533Z,18.00
2022-08-21T01:07:31.241Z,17.98
2022-08-21T01:10:36.148Z,17.99
2022-08-21T01:13:47.420Z,17.96
2022-08-21T01:16:53.173Z,18.00
2022-08-21T01:19:59.467Z,17.97
2022-08-21T01:23:04.899Z,17.84
2022-08-21T01:26:08.432Z,17.74
2022-08-21T01:29:16.590Z,17.92
2022-08-21T01:32:21.140Z,17.78
2022-08-21T01:35:24.312Z,17.72
2022-08-21T01:38:28.291Z,17.69
2022-08-21T01:41:31.513Z,17.54
2022-08-21T01:44:34.477Z,17.59
2022-08-21T01:47:37.698Z,17.47
2022-08-21T01:50:40.259Z,17.41
2022-08-21T01:53:44.082Z,17.35
2022-08-21T01:56:49.292Z,17.28
2022-08-21T01:59:51.852Z,17.24
2022-08-21T02:02:54.988Z,17.24
2022-08-21T02:05:57.803Z,17.22
2022-08-21T02:09:01.620Z,17.16
2022-08-21T02:12:04.712Z,17.08
2022-08-21T02:15:08.925Z,17.05
2022-08-21T02:18:11.515Z,16.86
2022-08-21T02:21:14.081Z,16.85
2022-08-21T02:24:17.894Z,16.82
2022-08-21T02:27:26.162Z,16.79
2022-08-21T02:30:32.924Z,16.75
2022-08-21T02:33:35.571Z,16.67
2022-08-21T02:36:38.200Z,16.63
2022-08-21T02:39:42.109Z,16.53
2022-08-21T02:42:44.856Z,16.50
2022-08-21T02:45:49.152Z,16.54
2022-08-21T02:48:51.631Z,16.52
2022-08-21T02:51:54.252Z,16.53
2022-08-21T02:54:58.096Z,16.52
2022-08-21T02:58:01.891Z,16.46
2022-08-21T03:01:05.280Z,16.46
2022-08-21T03:04:07.764Z,16.42
2022-08-21T03:07:11.265Z,16.36
2022-08-21T03:10:15.923Z,16.33
2022-08-21T03:13:20.234Z,16.35
2022-08-21T03:16:22.842Z,16.35
2022-08-21T03:19:25.332Z,16.30
2022-08-21T03:22:28.537Z,16.30
2022-08-21T03:25:39.918Z,16.31
2022-08-21T03:28:43.474Z,16.30
2022-08-21T03:31:46.104Z,16.31
2022-08-21T03:34:49.095Z,16.30
2022-08-21T03:37:51.661Z,16.33
2022-08-21T03:40:55.559Z,16.29
2022-08-21T03:43:58.054Z,16.17
2022-08-21T03:47:00.573Z,16.17
2022-08-21T03:50:03.182Z,16.17
2022-08-21T03:53:05.727Z,16.16
2022-08-21T03:56:09.725Z,16.13
2022-08-21T03:59:12.289Z,16.08
2022-08-21T04:02:18.427Z,16.12
2022-08-21T04:05:28.885Z,16.17
2022-08-21T04:08:31.563Z,16.14
2022-08-21T04:11:35.423Z,16.18
2022-08-21T04:14:38.152Z,16.17
2022-08-21T04:17:40.755Z,16.16
2022-08-21T04:20:48.222Z,16.18
2022-08-21T04:23:52.926Z,16.23
2022-08-21T04:26:56.773Z,16.33
2022-08-21T04:29:59.251Z,16.31
2022-08-21T04:33:01.846Z,16.37
2022-08-21T04:36:09.882Z,16.44
2022-08-21T04:39:12.567Z,16.44
2022-08-21T04:42:16.388Z,16.54
2022-08-21T04:45:23.023Z,16.55
2022-08-21T04:48:26.045Z,16.58
2022-08-21T04:51:33.763Z,16.61
2022-08-21T04:54:36.484Z,16.61
2022-08-21T04:57:49.104Z,16.66
2022-08-21T05:00:55.830Z,16.70
2022-08-21T05:04:00.979Z,16.71
2022-08-21T05:07:07.903Z,16.72
2022-08-21T05:10:12.492Z,16.81
2022-08-21T05:13:18.425Z,16.84
2022-08-21T05:16:36.687Z,16.81
2022-08-21T05:19:40.889Z,16.74
2022-08-21T05:22:43.819Z,16.82
2022-08-21T05:25:46.310Z,16.86
2022-08-21T05:28:50.113Z,16.85
2022-08-21T05:31:52.714Z,16.89
2022-08-21T05:34:55.804Z,16.87
2022-08-21T05:37:58.888Z,16.97
2022-08-21T05:41:01.502Z,17.06
2022-08-21T05:44:10.282Z,17.14
2022-08-21T05:47:13.664Z,17.20
2022-08-21T05:50:16.178Z,17.22
2022-08-21T05:53:20.606Z,17.23
2022-08-21T05:56:23.155Z,17.30
2022-08-21T05:59:28.577Z,17.34
2022-08-21T06:02:31.989Z,17.33
2022-08-21T06:05:37.080Z,17.36
2022-08-21T06:08:40.099Z,17.47
2022-08-21T06:11:42.655Z,17.48
2022-08-21T06:14:46.531Z,17.58
2022-08-21T06:17:49.027Z,17.62
2022-08-21T06:20:51.545Z,17.69
2022-08-21T06:23:54.043Z,17.62
2022-08-21T06:26:56.829Z,17.72
2022-08-21T06:30:00.668Z,17.83
2022-08-21T06:33:03.893Z,17.98
2022-08-21T06:36:06.792Z,18.02
2022-08-21T06:39:16.613Z,18.01
2022-08-21T06:42:28.812Z,18.07
2022-08-21T06:45:32.671Z,18.35
2022-08-21T06:48:35.220Z,18.50
2022-08-21T06:51:37.727Z,18.54
2022-08-21T06:54:41.590Z,18.66
2022-08-21T06:57:44.091Z,18.83
2022-08-21T07:01:00.613Z,19.05
2022-08-21T07:04:04.000Z,19.27
2022-08-21T07:07:06.519Z,19.65
2022-08-21T07:10:09.904Z,19.53
2022-08-21T07:13:24.671Z,19.56
2022-08-21T07:16:28.495Z,19.59
2022-08-21T07:19:31.113Z,19.62
2022-08-21T07:22:33.931Z,19.60
2022-08-21T07:25:36.828Z,19.22
2022-08-21T07:28:39.486Z,19.17
2022-08-21T07:31:43.405Z,19.35
2022-08-21T07:34:46.028Z,19.52
2022-08-21T07:37:49.210Z,19.55
2022-08-21T07:40:54.410Z,19.84
2022-08-21T07:43:58.171Z,19.96
2022-08-21T07:47:02.242Z,19.97
2022-08-21T07:50:05.439Z,19.78
2022-08-21T07:53:08.371Z,19.83
2022-08-21T07:56:12.044Z,19.91
2022-08-21T07:59:14.644Z,20.27
2022-08-21T08:02:25.668Z,20.62
2022-08-21T08:05:31.933Z,20.79
2022-08-21T08:08:35.028Z,21.02
2022-08-21T08:11:41.044Z,20.97
2022-08-21T08:14:43.819Z,21.31
2022-08-21T08:17:47.838Z,21.40
2022-08-21T08:20:50.428Z,20.95
2022-08-21T08:23:53.168Z,21.38
2022-08-21T08:26:57.938Z,22.05
2022-08-21T08:30:00.935Z,22.05
2022-08-21T08:33:04.754Z,22.29
2022-08-21T08:36:14.087Z,22.20
2022-08-21T08:39:26.481Z,22.47
2022-08-21T08:42:34.888Z,22.91
2022-08-21T08:45:41.547Z,23.32
2022-08-21T08:48:53.133Z,23.49
2022-08-21T08:52:02.215Z,23.13
2022-08-21T08:55:08.058Z,23.32
2022-08-21T08:58:13.321Z,23.12
2022-08-21T09:01:18.909Z,23.08
2022-08-21T09:04:26.848Z,23.16
2022-08-21T09:07:39.103Z,23.30
2022-08-21T09:10:52.926Z,22.91
2022-08-21T09:14:06.327Z,23.09
2022-08-21T09:17:21.513Z,23.41
2022-08-21T09:20:36.061Z,23.54
2022-08-21T09:23:50.064Z,23.74
2022-08-21T09:27:03.938Z,23.77
2022-08-21T09:30:08.615Z,23.88
2022-08-21T09:33:14.643Z,23.89
2022-08-21T09:36:27.918Z,23.91
2022-08-21T09:39:33.069Z,24.07
2022-08-21T09:42:42.924Z,23.81
2022-08-21T09:45:47.048Z,23.76
2022-08-21T09:48:52.053Z,23.88
2022-08-21T09:51:57.019Z,24.06
2022-08-21T09:54:59.556Z,23.87
2022-08-21T09:58:02.888Z,23.97
2022-08-21T10:01:07.826Z,23.42
2022-08-21T10:04:11.726Z,23.56
2022-08-21T10:07:16.455Z,23.50
2022-08-21T10:10:22.922Z,23.66
2022-08-21T10:13:38.515Z,23.35
2022-08-21T10:16:51.376Z,23.36
2022-08-21T10:20:02.133Z,23.59
2022-08-21T10:23:18.026Z,23.69
2022-08-21T10:26:30.946Z,23.71
2022-08-21T10:29:46.951Z,24.05
2022-08-21T10:33:01.110Z,24.15
2022-08-21T10:36:18.282Z,24.23
2022-08-21T10:39:35.603Z,24.27
2022-08-21T10:42:54.095Z,24.34
2022-08-21T10:46:09.018Z,24.65
2022-08-21T10:49:22.718Z,24.14
2022-08-21T10:52:44.205Z,23.38
2022-08-21T10:55:56.707Z,24.11
2022-08-21T10:59:11.599Z,24.25
2022-08-21T11:02:19.375Z,23.92
2022-08-21T11:05:29.859Z,24.37
2022-08-21T11:08:37.476Z,24.68
2022-08-21T11:11:55.227Z,24.84
2022-08-21T11:15:29.225Z,25.13
2022-08-21T11:18:36.290Z,25.26
2022-08-21T11:21:44.519Z,25.21
2022-08-21T11:24:52.635Z,25.37
2022-08-21T11:28:02.544Z,25.19
2022-08-21T11:31:17.191Z,24.75
2022-08-21T11:34:34.345Z,24.72
2022-08-21T11:37:51.062Z,24.66
2022-08-21T11:41:05.423Z,24.69
2022-08-21T11:44:17.345Z,24.52
2022-08-21T11:47:29.633Z,24.58
2022-08-21T11:50:35.998Z,24.31
2022-08-21T11:53:46.462Z,24.29
2022-08-21T11:56:56.093Z,24.39
2022-08-21T12:00:08.710Z,24.40
2022-08-21T12:03:15.912Z,24.07
2022-08-21T12:06:31.998Z,24.22
2022-08-21T12:09:37.630Z,24.13
2022-08-21T12:12:42.670Z,24.34
2022-08-21T12:15:46.501Z,24.42
2022-08-21T12:18:48.981Z,24.64
2022-08-21T12:21:54.115Z,24.91
2022-08-21T12:25:07.993Z,24.80
2022-08-21T12:28:13.621Z,25.56
2022-08-21T12:31:23.598Z,26.16
2022-08-21T12:34:34.151Z,25.93
2022-08-21T12:37:41.505Z,27.30
2022-08-21T12:40:49.257Z,28.32
2022-08-21T12:43:59.055Z,28.09
2022-08-21T12:47:06.081Z,27.80
2022-08-21T12:50:13.214Z,27.04
2022-08-21T12:53:27.817Z,26.79
2022-08-21T12:56:32.671Z,26.74
2022-08-21T12:59:40.188Z,26.78
2022-08-21T13:02:50.192Z,26.59
2022-08-21T13:05:54.663Z,25.55
2022-08-21T13:09:01.157Z,26.00
2022-08-21T13:12:04.050Z,26.04
2022-08-21T13:15:09.390Z,25.50
2022-08-21T13:18:23.506Z,26.17
2022-08-21T13:21:31.775Z,26.62
2022-08-21T13:24:42.712Z,27.35
2022-08-21T13:27:57.975Z,26.44
2022-08-21T13:31:02.552Z,26.51
2022-08-21T13:34:09.558Z,26.19
2022-08-21T13:37:16.386Z,26.64
2022-08-21T13:40:26.145Z,26.74
2022-08-21T13:43:32.445Z,26.08
2022-08-21T13:46:37.620Z,26.70
2022-08-21T13:49:44.590Z,27.38
2022-08-21T13:52:56.769Z,27.34
2022-08-21T13:56:01.179Z,26.57
2022-08-21T13:59:04.971Z,26.12
2022-08-21T14:02:15.015Z,27.19
2022-08-21T14:05:23.630Z,27.94
2022-08-21T14:08:31.564Z,26.85
2022-08-21T14:11:36.611Z,26.86
2022-08-21T14:14:41.107Z,27.22
2022-08-21T14:17:44.058Z,27.78
2022-08-21T14:20:47.957Z,28.19
2022-08-21T14:24:01.628Z,27.96
2022-08-21T14:27:07.683Z,28.10
2022-08-21T14:30:14.238Z,28.02
2022-08-21T14:33:22.466Z,27.95
2022-08-21T14:36:26.267Z,27.82
2022-08-21T14:39:28.743Z,27.18
2022-08-21T14:42:31.497Z,26.91
2022-08-21T14:45:34.035Z,26.58
2022-08-21T14:48:36.766Z,26.85
2022-08-21T14:51:53.818Z,26.89
2022-08-21T14:54:57.127Z,26.95
2022-08-21T14:57:59.773Z,27.27
2022-08-21T15:01:04.778Z,27.33
2022-08-21T15:04:07.336Z,27.04
2022-08-21T15:07:11.169Z,26.96
2022-08-21T15:10:14.338Z,27.02
2022-08-21T15:13:17.017Z,26.95
2022-08-21T15:16:19.496Z,26.89
2022-08-21T15:19:22.002Z,26.71
2022-08-21T15:22:28.061Z,26.49
2022-08-21T15:25:33.147Z,26.10
2022-08-21T15:28:37.733Z,25.55
2022-08-21T15:31:55.124Z,25.21
2022-08-21T15:34:58.973Z,24.77
2022-08-21T15:38:03.100Z,25.02
2022-08-21T15:41:06.727Z,25.12
2022-08-21T15:44:12.611Z,25.08
2022-08-21T15:47:18.305Z,25.29
2022-08-21T15:50:21.792Z,25.27
2022-08-21T15:53:25.599Z,25.46
2022-08-21T15:56:35.535Z,25.83
2022-08-21T15:59:42.775Z,25.89
2022-08-21T16:02:48.174Z,25.93
2022-08-21T16:05:53.243Z,25.58
2022-08-21T16:08:57.038Z,25.42
2022-08-21T16:12:00.591Z,25.29
2022-08-21T16:15:04.938Z,25.04
2022-08-21T16:18:07.777Z,25.18
2022-08-21T16:21:10.262Z,25.15
2022-08-21T16:24:14.054Z,24.92
2022-08-21T16:27:17.590Z,24.55
2022-08-21T16:30:21.862Z,23.95
2022-08-21T16:33:31.294Z,23.59
2022-08-21T16:36:35.816Z,23.32
2022-08-21T16:39:39.886Z,23.21
2022-08-21T16:42:43.782Z,23.10
2022-08-21T16:45:48.871Z,22.81
2022-08-21T16:48:55.159Z,22.66
2022-08-21T16:51:57.683Z,22.60
2022-08-21T16:55:02.538Z,22.52
2022-08-21T16:58:10.431Z,22.37
2022-08-21T17:01:16.036Z,22.17
2022-08-21T17:04:18.629Z,22.03
2022-08-21T17:07:21.127Z,21.83
2022-08-21T17:10:24.915Z,21.81
2022-08-21T17:13:27.880Z,21.88
2022-08-21T17:16:30.909Z,21.76
2022-08-21T17:19:34.503Z,21.68
2022-08-21T17:22:37.027Z,21.78
2022-08-21T17:25:44.463Z,21.98
2022-08-21T17:28:50.909Z,22.17
2022-08-21T17:31:55.718Z,22.34
2022-08-21T17:34:58.376Z,22.48
2022-08-21T17:38:00.943Z,22.54
2022-08-21T17:41:06.280Z,22.55
2022-08-21T17:44:15.344Z,22.46
2022-08-21T17:47:20.703Z,22.34
2022-08-21T17:50:23.370Z,22.16
2022-08-21T17:53:25.984Z,21.87
2022-08-21T17:56:32.619Z,21.62
2022-08-21T17:59:35.666Z,21.36
2022-08-21T18:02:38.855Z,21.11
2022-08-21T18:05:41.844Z,20.88
2022-08-21T18:08:44.307Z,20.66
2022-08-21T18:11:48.120Z,20.44
2022-08-21T18:14:51.251Z,20.23
2022-08-21T18:17:54.183Z,20.10
2022-08-21T18:20:58.031Z,19.94
2022-08-21T18:24:00.529Z,19.79
2022-08-21T18:27:06.424Z,19.63
2022-08-21T18:30:11.182Z,19.36
2022-08-21T18:33:15.100Z,19.05
2022-08-21T18:36:17.555Z,18.75
2022-08-21T18:39:35.841Z,18.59
2022-08-21T18:42:51.502Z,18.44
2022-08-21T18:45:58.543Z,18.29
2022-08-21T18:49:01.110Z,18.21
2022-08-21T18:52:05.618Z,18.08
2022-08-21T18:55:13.427Z,17.97
2022-08-21T18:58:19.034Z,17.78
2022-08-21T19:01:21.641Z,17.65
2022-08-21T19:04:43.761Z,17.62
2022-08-21T19:07:47.320Z,17.54
2022-08-21T19:10:52.136Z,17.42
2022-08-21T19:13:56.819Z,17.18
2022-08-21T19:16:59.641Z,16.92
2022-08-21T19:20:07.094Z,16.73
2022-08-21T19:23:11.417Z,16.61
2022-08-21T19:26:13.949Z,16.61
2022-08-21T19:29:20.290Z,16.65
2022-08-21T19:32:39.583Z,16.59
2022-08-21T19:35:45.610Z,16.44
2022-08-21T19:38:53.563Z,16.38
2022-08-21T19:41:58.515Z,16.44
2022-08-21T19:45:02.875Z,16.30
2022-08-21T19:48:06.376Z,16.10
2022-08-21T19:51:08.972Z,16.02
2022-08-21T19:54:17.344Z,15.98
2022-08-21T19:57:20.106Z,15.82
2022-08-21T20:00:24.326Z,15.65
2022-08-21T20:03:27.033Z,15.43
2022-08-21T20:06:29.521Z,15.30
2022-08-21T20:09:32.722Z,15.25
2022-08-21T20:12:37.046Z,15.26
2022-08-21T20:15:41.054Z,15.33
2022-08-21T20:18:44.039Z,15.43
2022-08-21T20:21:46.823Z,15.43
2022-08-21T20:24:49.622Z,15.37
2022-08-21T20:27:52.209Z,15.21
2022-08-21T20:30:56.519Z,15.08
2022-08-21T20:33:59.746Z,15.00
2022-08-21T20:37:02.893Z,14.95
2022-08-21T20:40:11.571Z,14.88
2022-08-21T20:43:35.376Z,14.92
2022-08-21T20:46:39.290Z,14.80
2022-08-21T20:49:46.166Z,14.70
2022-08-21T20:52:51.791Z,14.63
2022-08-21T20:55:56.521Z,14.66
2022-08-21T20:59:17.133Z,14.67
2022-08-21T21:02:32.885Z,14.73
2022-08-21T21:05:41.619Z,14.67
2022-08-21T21:08:48.977Z,14.56
2022-08-21T21:11:58.200Z,14.51
2022-08-21T21:15:05.923Z,14.50
2022-08-21T21:18:14.312Z,14.30
2022-08-21T21:21:22.698Z,14.10
2022-08-21T21:24:35.382Z,14.03
2022-08-21T21:27:43.574Z,14.01
2022-08-21T21:30:51.964Z,14.06
2022-08-21T21:34:01.813Z,14.04
2022-08-21T21:37:07.959Z,14.09
2022-08-21T21:40:29.336Z,14.22
2022-08-21T21:43:48.742Z,14.28
2022-08-21T21:47:01.765Z,14.31
2022-08-21T21:50:20.762Z,14.24
2022-08-21T21:53:50.612Z,14.16
2022-08-21T21:57:04.214Z,13.99
2022-08-21T22:00:12.452Z,13.78
2022-08-21T22:03:22.835Z,13.71
2022-08-21T22:06:35.763Z,13.70
2022-08-21T22:09:44.880Z,13.73
2022-08-21T22:12:58.633Z,13.72
2022-08-21T22:16:13.041Z,13.70
2022-08-21T22:19:20.848Z,13.72
2022-08-21T22:22:27.660Z,13.66
2022-08-21T22:25:35.313Z,13.57
2022-08-21T22:28:41.671Z,13.56
2022-08-21T22:31:44.677Z,13.56
2022-08-21T22:35:02.005Z,13.56
2022-08-21T22:38:18.324Z,13.49
2022-08-21T22:41:27.821Z,13.53
2022-08-21T22:44:30.711Z,13.58
2022-08-21T22:47:38.276Z,13.67
2022-08-21T22:50:41.496Z,13.55
2022-08-21T22:53:54.667Z,13.41
2022-08-21T22:57:02.646Z,13.29
2022-08-21T23:00:11.095Z,13.25
2022-08-21T23:03:24.692Z,13.25
2022-08-21T23:06:32.305Z,13.25
2022-08-21T23:09:39.219Z,13.30
2022-08-21T23:12:43.861Z,13.29
2022-08-21T23:15:59.967Z,13.29
2022-08-21T23:19:12.920Z,13.43
2022-08-21T23:22:35.922Z,13.45
2022-08-21T23:26:00.141Z,13.57
2022-08-21T23:29:24.784Z,13.68
2022-08-21T23:32:52.402Z,13.66
2022-08-21T23:36:22.440Z,13.65
2022-08-21T23:39:40.203Z,13.69
2022-08-21T23:43:07.335Z,13.77
2022-08-21T23:46:34.268Z,13.82
2022-08-21T23:49:49.328Z,13.74
2022-08-21T23:53:15.838Z,13.52
2022-08-21T23:56:29.540Z,13.44
2022-08-21T23:59:44.331Z,13.47
